Time;durP1;ratioP1;P1;durP2;ratioP2;P2;SDS_P1;SDS_P2;PMS_P1;PMS_P2;Temp;Humidity;BMP_temperature;BMP_pressure;BME280_temperature;BME280_humidity;BME280_pressure;Samples;Min_cycle;Max_cycle;Signal;HPM_P1;HPM_P2
2022/11/06 00:02:21;;;;;;;12.93;3.30;;;8.00;99.90;;;;;;5111914;28;20036;-67
2022/11/06 00:04:47;;;;;;;11.85;3.33;;;8.10;99.90;;;;;;5111763;28;20489;-67
2022/11/06 00:07:13;;;;;;;10.98;3.10;;;8.10;99.90;;;;;;5112376;28;20040;-66
2022/11/06 00:09:38;;;;;;;12.13;3.40;;;8.10;99.90;;;;;;5111870;28;20020;-66
2022/11/06 00:12:04;;;;;;;10.40;3.20;;;8.20;99.90;;;;;;5111481;28;20070;-66
2022/11/06 00:14:30;;;;;;;10.85;3.15;;;8.30;99.90;;;;;;5111792;28;20192;-66
2022/11/06 00:16:56;;;;;;;10.07;3.00;;;8.30;99.90;;;;;;5111858;28;20032;-66
2022/11/06 00:19:21;;;;;;;10.55;3.25;;;8.40;99.90;;;;;;5111224;28;20031;-66
2022/11/06 00:21:47;;;;;;;10.52;2.90;;;8.30;99.90;;;;;;5096367;28;20543;-66
2022/11/06 00:24:14;;;;;;;13.48;3.08;;;8.50;99.90;;;;;;5093329;28;20063;-66
2022/11/06 00:26:40;;;;;;;11.02;2.80;;;8.40;99.90;;;;;;5093433;28;20024;-66
2022/11/06 00:29:06;;;;;;;10.32;3.00;;;8.40;99.90;;;;;;5092420;28;20031;-66
2022/11/06 00:31:35;;;;;;;10.23;3.00;;;8.40;99.90;;;;;;5093553;28;20640;-66
2022/11/06 00:34:02;;;;;;;9.73;3.10;;;8.30;99.90;;;;;;5092851;28;20073;-66
2022/11/06 00:36:29;;;;;;;11.88;3.35;;;8.40;99.90;;;;;;5093285;28;20024;-66
2022/11/06 00:38:56;;;;;;;12.88;3.35;;;8.30;99.90;;;;;;5093280;28;20070;-66
2022/11/06 00:41:22;;;;;;;13.27;3.50;;;8.50;99.90;;;;;;5092958;28;20032;-66
2022/11/06 00:43:54;;;;;;;12.45;3.25;;;8.50;99.90;;;;;;5093082;28;20571;-66
2022/11/06 00:46:21;;;;;;;11.07;2.85;;;8.60;99.90;;;;;;5093058;28;20028;-66
2022/11/06 00:48:46;;;;;;;10.88;3.35;;;8.70;99.90;;;;;;5092602;28;20027;-67
2022/11/06 00:51:14;;;;;;;11.45;3.03;;;8.50;99.90;;;;;;5093477;28;20027;-67
2022/11/06 00:53:41;;;;;;;9.90;3.20;;;8.60;99.90;;;;;;5092905;28;20099;-67
2022/11/06 00:56:18;;;;;;;15.98;3.47;;;8.70;99.90;;;;;;5092865;28;20107;-66
2022/11/06 00:58:45;;;;;;;7.38;2.50;;;8.70;99.90;;;;;;5092827;28;20028;-66
2022/11/06 01:01:14;;;;;;;13.38;3.15;;;8.70;99.90;;;;;;5092727;28;20471;-67
2022/11/06 01:03:42;;;;;;;9.32;3.50;;;8.60;99.90;;;;;;5092394;28;20073;-66
2022/11/06 01:06:19;;;;;;;12.00;3.17;;;8.80;99.90;;;;;;5092591;28;20062;-66
2022/11/06 01:08:46;;;;;;;11.35;3.10;;;8.70;99.90;;;;;;5092697;28;20174;-66
2022/11/06 01:11:13;;;;;;;9.10;3.03;;;8.60;99.90;;;;;;5092673;28;20097;-67
2022/11/06 01:13:40;;;;;;;8.45;2.65;;;8.80;99.90;;;;;;5092932;28;20051;-66
2022/11/06 01:16:08;;;;;;;9.50;3.58;;;8.70;99.90;;;;;;5092433;28;20024;-67
2022/11/06 01:18:34;;;;;;;10.48;2.95;;;8.60;99.90;;;;;;5092195;28;20020;-67
2022/11/06 01:21:16;;;;;;;9.50;3.10;;;8.60;99.90;;;;;;5092987;28;20402;-67
2022/11/06 01:23:42;;;;;;;7.72;3.15;;;8.60;99.90;;;;;;5092191;28;20495;-66
2022/11/06 01:26:09;;;;;;;13.10;2.83;;;8.50;99.90;;;;;;5092439;28;20054;-67
2022/11/06 01:28:36;;;;;;;9.77;2.90;;;8.60;99.90;;;;;;5092284;28;20520;-66
2022/11/06 01:31:04;;;;;;;7.40;3.17;;;8.60;99.90;;;;;;5091754;28;20024;-67
2022/11/06 01:33:29;;;;;;;11.30;3.88;;;8.50;99.90;;;;;;5092380;28;20451;-66
2022/11/06 01:35:55;;;;;;;9.93;3.30;;;8.50;99.90;;;;;;5092068;28;20107;-67
2022/11/06 01:38:21;;;;;;;11.38;3.03;;;8.60;99.90;;;;;;5092160;28;20394;-66
2022/11/06 01:40:47;;;;;;;8.10;2.78;;;8.60;99.90;;;;;;5091839;28;20096;-67
2022/11/06 01:43:18;;;;;;;9.80;2.83;;;8.50;99.90;;;;;;5092017;28;20052;-67
2022/11/06 01:45:47;;;;;;;14.48;4.18;;;8.50;99.90;;;;;;5091909;28;20111;-67
2022/11/06 01:48:13;;;;;;;11.25;2.80;;;8.50;99.90;;;;;;5092056;28;20084;-67
2022/11/06 01:50:43;;;;;;;9.23;2.72;;;8.50;99.90;;;;;;5092310;28;20440;-66
2022/11/06 01:53:10;;;;;;;9.77;2.80;;;8.40;99.90;;;;;;5091911;28;20020;-67
2022/11/06 01:55:41;;;;;;;8.55;2.58;;;8.30;99.90;;;;;;5091932;28;20027;-66
2022/11/06 01:58:10;;;;;;;9.57;2.80;;;8.30;99.90;;;;;;5091701;28;20020;-66
2022/11/06 02:00:36;;;;;;;13.18;3.08;;;8.30;99.90;;;;;;5091384;28;20028;-67
2022/11/06 02:03:03;;;;;;;11.27;2.78;;;8.30;99.90;;;;;;5092137;28;20043;-67
2022/11/06 02:05:29;;;;;;;9.90;2.92;;;8.20;99.90;;;;;;5090569;28;20020;-66
2022/11/06 02:07:56;;;;;;;8.82;2.95;;;8.20;99.90;;;;;;5091713;28;20035;-66
2022/11/06 02:10:22;;;;;;;7.20;2.58;;;8.10;99.90;;;;;;5091739;28;20026;-66
2022/11/06 02:12:50;;;;;;;8.65;2.83;;;8.10;99.90;;;;;;5091625;28;20024;-66
2022/11/06 02:15:30;;;;;;;8.70;3.00;;;8.10;99.90;;;;;;5091123;28;20435;-66
2022/11/06 02:18:17;;;;;;;8.40;2.70;;;8.10;99.90;;;;;;5090133;28;20028;-67
2022/11/06 02:21:22;;;;;;;11.52;2.97;;;8.10;99.90;;;;;;5091819;28;20032;-66
2022/11/06 02:24:28;;;;;;;10.07;2.80;;;8.10;99.90;;;;;;5091045;28;20097;-67
2022/11/06 02:27:14;;;;;;;7.57;2.50;;;8.10;99.90;;;;;;5088860;28;20070;-65
2022/11/06 02:30:10;;;;;;;10.45;3.05;;;8.10;99.90;;;;;;5088272;28;20161;-67
2022/11/06 02:33:00;;;;;;;9.68;2.72;;;8.10;99.90;;;;;;5071307;28;20056;-66
2022/11/06 02:35:39;;;;;;;9.00;2.95;;;8.10;99.90;;;;;;5088910;28;20035;-67
2022/11/06 02:38:11;;;;;;;8.63;2.83;;;8.10;99.90;;;;;;5088983;28;20032;-66
2022/11/06 02:40:43;;;;;;;10.98;2.72;;;8.10;99.90;;;;;;5089145;28;20035;-66
2022/11/06 02:43:09;;;;;;;7.95;2.60;;;8.10;99.90;;;;;;5088332;28;20522;-66
2022/11/06 02:45:44;;;;;;;8.40;2.63;;;8.00;99.90;;;;;;5089386;28;20078;-66
2022/11/06 02:48:15;;;;;;;12.82;2.75;;;8.00;99.90;;;;;;5089113;28;20031;-66
2022/11/06 02:50:44;;;;;;;8.88;2.65;;;7.90;99.90;;;;;;5088918;28;20390;-67
2022/11/06 02:53:14;;;;;;;7.32;2.50;;;7.90;99.90;;;;;;5092445;28;20047;-66
2022/11/06 02:55:45;;;;;;;9.48;2.63;;;7.80;99.90;;;;;;5093179;28;20028;-66
2022/11/06 02:58:41;;;;;;;9.35;3.03;;;7.80;99.90;;;;;;5079099;28;20051;-66
2022/11/06 03:01:45;;;;;;;11.48;2.88;;;7.80;99.90;;;;;;5074664;28;20091;-66
2022/11/06 03:04:26;;;;;;;9.37;2.47;;;7.80;99.90;;;;;;5072427;28;20045;-66
2022/11/06 03:07:01;;;;;;;7.22;2.78;;;7.70;99.90;;;;;;5072266;28;20267;-67
2022/11/06 03:09:30;;;;;;;10.55;3.42;;;7.70;99.90;;;;;;5072777;28;20036;-66
2022/11/06 03:12:08;;;;;;;7.30;2.70;;;7.70;99.90;;;;;;5071665;28;20025;-67
2022/11/06 03:14:45;;;;;;;10.02;2.53;;;7.70;99.90;;;;;;5071929;28;20111;-66
2022/11/06 03:17:21;;;;;;;8.63;2.97;;;7.70;99.90;;;;;;5072271;28;20020;-67
2022/11/06 03:20:36;;;;;;;11.93;3.15;;;7.60;99.90;;;;;;5072277;28;20141;-67
2022/11/06 03:23:34;;;;;;;9.65;3.00;;;7.60;99.90;;;;;;4992767;28;20043;-67
2022/11/06 03:26:17;;;;;;;8.52;2.55;;;7.60;99.90;;;;;;4985187;28;20042;-66
2022/11/06 03:28:52;;;;;;;7.80;2.38;;;7.60;99.90;;;;;;4992506;28;20042;-67
2022/11/06 03:31:28;;;;;;;8.60;2.95;;;7.50;99.90;;;;;;4992864;28;20117;-66
2022/11/06 03:34:01;;;;;;;7.38;2.78;;;7.50;99.90;;;;;;4992913;28;20038;-67
2022/11/06 03:36:42;;;;;;;11.70;2.92;;;7.40;99.90;;;;;;4992553;28;20030;-66
2022/11/06 03:39:14;;;;;;;8.98;2.72;;;7.50;99.90;;;;;;4976940;28;20031;-66
2022/11/06 03:41:50;;;;;;;12.50;3.28;;;7.40;99.90;;;;;;4992060;28;20050;-66
2022/11/06 03:44:23;;;;;;;11.57;2.78;;;7.40;99.90;;;;;;4992347;28;20042;-66
2022/11/06 03:47:07;;;;;;;9.65;2.80;;;7.30;99.90;;;;;;4992522;28;20031;-66
2022/11/06 03:49:42;;;;;;;12.43;3.05;;;7.40;99.90;;;;;;4992371;28;20045;-66
2022/11/06 03:52:42;;;;;;;7.47;2.70;;;7.50;99.90;;;;;;4992658;28;20450;-67
2022/11/06 03:55:17;;;;;;;8.70;2.55;;;7.40;99.90;;;;;;5011699;28;20527;-67
2022/11/06 03:57:51;;;;;;;10.68;2.63;;;7.40;99.90;;;;;;5021244;28;20454;-66
2022/11/06 04:00:19;;;;;;;10.00;2.80;;;7.40;99.90;;;;;;5051955;28;20488;-67
2022/11/06 04:03:03;;;;;;;10.02;2.95;;;7.30;99.90;;;;;;5051297;28;20041;-66
2022/11/06 04:05:36;;;;;;;8.55;2.90;;;7.30;99.90;;;;;;5051366;28;20310;-66
2022/11/06 04:13:57;;;;;;;10.70;3.20;;;7.30;99.90;;;;;;5051308;28;20052;-66
2022/11/06 04:16:28;;;;;;;9.43;3.13;;;7.20;99.90;;;;;;5051298;28;20036;-67
2022/11/06 04:18:54;;;;;;;9.88;2.80;;;7.20;99.90;;;;;;5051273;28;20049;-67
2022/11/06 04:21:51;;;;;;;11.82;2.80;;;7.30;99.90;;;;;;5051443;28;20081;-66
2022/11/06 04:27:35;;;;;;;9.32;2.95;;;7.20;99.90;;;;;;5050953;28;20048;-66
2022/11/06 04:30:01;;;;;;;9.95;3.10;;;7.30;99.90;;;;;;5047446;28;20562;-67
2022/11/06 04:32:39;;;;;;;6.03;2.65;;;7.20;99.90;;;;;;5084022;28;20115;-66
2022/11/06 04:35:24;;;;;;;7.93;2.88;;;7.20;99.90;;;;;;5093225;28;20112;-66
2022/11/06 04:37:58;;;;;;;13.02;5.22;;;7.10;99.90;;;;;;5092078;28;20372;-66
2022/11/06 04:40:48;;;;;;;11.55;5.55;;;7.10;99.90;;;;;;5092838;28;20491;-66
2022/11/06 04:43:27;;;;;;;9.90;3.10;;;7.20;99.90;;;;;;5092818;28;20070;-67
2022/11/06 04:45:57;;;;;;;10.30;4.00;;;7.20;99.90;;;;;;5093114;28;20036;-67
2022/11/06 04:48:24;;;;;;;9.68;3.33;;;7.10;99.90;;;;;;5093540;28;20037;-66
2022/11/06 04:50:55;;;;;;;6.90;2.78;;;7.10;99.90;;;;;;5093050;28;20028;-66
2022/11/06 04:53:22;;;;;;;8.00;3.25;;;7.10;99.90;;;;;;5092897;28;20028;-66
2022/11/06 04:55:55;;;;;;;9.43;3.28;;;7.00;99.90;;;;;;5092613;28;20035;-66
2022/11/06 04:58:21;;;;;;;10.23;3.50;;;7.00;99.90;;;;;;5093313;28;20028;-66
2022/11/06 05:00:49;;;;;;;8.80;3.30;;;7.00;99.90;;;;;;5092956;28;20046;-66
2022/11/06 05:03:15;;;;;;;10.77;3.17;;;7.00;99.90;;;;;;5093074;28;20465;-66
2022/11/06 05:05:42;;;;;;;10.25;3.42;;;7.10;99.90;;;;;;5092779;28;20027;-66
2022/11/06 05:08:13;;;;;;;9.57;3.20;;;7.00;99.90;;;;;;5092380;28;20114;-66
2022/11/06 05:10:39;;;;;;;6.03;2.85;;;7.10;99.90;;;;;;5092636;28;20031;-66
2022/11/06 05:13:05;;;;;;;9.75;3.58;;;7.10;99.90;;;;;;5093015;28;20050;-66
2022/11/06 05:15:30;;;;;;;9.60;3.58;;;7.00;99.90;;;;;;5092002;28;20421;-66
2022/11/06 05:17:57;;;;;;;8.30;3.28;;;7.10;99.90;;;;;;5092471;28;20102;-67
2022/11/06 05:20:23;;;;;;;9.50;2.72;;;7.10;99.90;;;;;;5092282;28;20032;-66
2022/11/06 05:22:59;;;;;;;8.65;2.97;;;7.10;99.90;;;;;;5092394;28;20044;-66
2022/11/06 05:25:27;;;;;;;8.40;3.20;;;7.10;99.90;;;;;;5092287;28;20390;-66
2022/11/06 05:27:52;;;;;;;8.25;3.05;;;7.10;99.90;;;;;;5092387;28;20440;-66
2022/11/06 05:30:18;;;;;;;10.00;3.25;;;7.10;99.90;;;;;;5092288;28;20016;-66
2022/11/06 05:32:44;;;;;;;11.98;3.42;;;7.10;99.90;;;;;;5091784;28;20081;-66
2022/11/06 05:35:10;;;;;;;10.85;3.90;;;7.10;99.90;;;;;;5092048;28;20024;-66
2022/11/06 05:37:35;;;;;;;11.45;3.63;;;7.20;99.90;;;;;;5092059;28;20108;-66
2022/11/06 05:40:01;;;;;;;9.40;3.30;;;7.10;99.90;;;;;;5092062;28;20031;-66
2022/11/06 05:42:27;;;;;;;9.38;3.35;;;7.20;99.90;;;;;;5091829;28;20068;-66
2022/11/06 05:44:53;;;;;;;9.60;3.10;;;7.10;99.90;;;;;;5092077;28;20024;-66
2022/11/06 05:47:18;;;;;;;8.20;2.70;;;7.20;99.90;;;;;;5092369;28;20016;-66
2022/11/06 05:49:44;;;;;;;8.15;2.80;;;7.20;99.90;;;;;;5092091;28;20028;-66
2022/11/06 05:52:10;;;;;;;9.75;2.90;;;7.20;99.90;;;;;;5091480;28;20359;-66
2022/11/06 05:54:36;;;;;;;9.43;2.88;;;7.10;99.90;;;;;;5091917;28;20081;-66
2022/11/06 05:57:01;;;;;;;13.18;2.95;;;7.10;99.90;;;;;;5091753;28;20476;-66
2022/11/06 05:59:27;;;;;;;6.30;2.40;;;7.00;99.90;;;;;;5091835;28;20081;-66
2022/11/06 06:01:53;;;;;;;9.63;3.00;;;7.10;99.90;;;;;;5091793;28;20455;-66
2022/11/06 06:04:18;;;;;;;9.20;2.80;;;7.00;99.90;;;;;;5091747;28;20040;-66
2022/11/06 06:06:44;;;;;;;6.97;2.72;;;7.10;99.90;;;;;;5092204;28;20095;-66
2022/11/06 06:09:10;;;;;;;10.13;2.97;;;7.10;99.90;;;;;;5091802;28;20081;-67
2022/11/06 06:11:36;;;;;;;10.57;3.30;;;7.20;99.90;;;;;;5091776;28;20020;-66
2022/11/06 06:14:01;;;;;;;8.75;2.95;;;7.10;99.90;;;;;;5092449;28;20680;-66
2022/11/06 06:16:28;;;;;;;8.60;2.85;;;7.00;99.90;;;;;;5091942;28;20443;-66
2022/11/06 06:18:53;;;;;;;11.27;3.30;;;7.00;99.90;;;;;;5092002;28;20030;-66
2022/11/06 06:21:19;;;;;;;11.50;3.35;;;7.00;99.90;;;;;;5092115;28;20423;-66
2022/11/06 06:23:45;;;;;;;7.40;3.40;;;7.00;99.90;;;;;;5092330;28;20036;-66
2022/11/06 06:26:10;;;;;;;11.13;3.83;;;6.90;99.90;;;;;;5091498;28;20020;-66
2022/11/06 06:28:36;;;;;;;8.68;3.10;;;6.80;99.90;;;;;;5096781;28;20032;-66
2022/11/06 06:31:06;;;;;;;9.43;3.42;;;6.70;99.90;;;;;;5095999;28;20509;-66
2022/11/06 06:33:32;;;;;;;8.95;3.13;;;6.70;99.90;;;;;;5095480;28;20559;-66
2022/11/06 06:35:58;;;;;;;10.27;3.15;;;6.80;99.90;;;;;;5095270;28;20016;-66
2022/11/06 06:38:24;;;;;;;12.77;3.78;;;6.80;99.90;;;;;;5095796;28;20062;-66
2022/11/06 06:40:52;;;;;;;9.88;3.80;;;6.70;99.90;;;;;;5096011;28;20016;-66
2022/11/06 06:43:18;;;;;;;10.75;6.35;;;6.70;99.90;;;;;;5095087;28;20059;-66
2022/11/06 06:45:44;;;;;;;14.68;5.38;;;6.70;99.90;;;;;;5095949;28;20017;-66
2022/11/06 06:48:09;;;;;;;9.63;5.32;;;6.70;99.90;;;;;;5095888;28;20049;-66
2022/11/06 06:50:35;;;;;;;13.68;5.00;;;6.60;99.90;;;;;;5095039;28;20024;-67
2022/11/06 06:53:01;;;;;;;8.38;3.72;;;6.60;99.90;;;;;;5095296;28;20021;-66
2022/11/06 06:55:26;;;;;;;11.63;3.70;;;6.70;99.90;;;;;;5095319;28;20024;-66
2022/11/06 06:57:57;;;;;;;10.27;4.20;;;6.70;99.90;;;;;;5095604;28;20454;-66
2022/11/06 07:00:22;;;;;;;11.88;5.30;;;6.60;99.90;;;;;;5095446;28;20036;-66
2022/11/06 07:02:48;;;;;;;8.55;3.67;;;6.70;99.90;;;;;;5094905;28;20040;-67
2022/11/06 07:05:14;;;;;;;12.75;6.93;;;6.80;99.90;;;;;;5094837;28;20024;-66
2022/11/06 07:07:39;;;;;;;13.02;7.13;;;6.80;99.90;;;;;;5094927;28;20501;-66
2022/11/06 07:10:05;;;;;;;9.50;3.70;;;6.80;99.90;;;;;;5095613;28;20024;-66
2022/11/06 07:12:31;;;;;;;8.77;3.20;;;6.80;99.90;;;;;;5094898;28;20493;-66
2022/11/06 07:14:57;;;;;;;10.10;3.30;;;7.10;99.90;;;;;;5095293;28;20016;-66
2022/11/06 07:17:22;;;;;;;11.25;3.08;;;8.00;99.90;;;;;;5094873;28;20494;-67
2022/11/06 07:19:48;;;;;;;6.75;2.60;;;8.70;99.90;;;;;;5094351;28;20040;-66
2022/11/06 07:22:14;;;;;;;9.25;3.08;;;9.10;99.90;;;;;;5094743;28;20078;-67
2022/11/06 07:24:39;;;;;;;6.55;2.60;;;9.40;99.90;;;;;;5094926;28;20032;-67
2022/11/06 07:27:05;;;;;;;8.05;2.90;;;10.70;99.90;;;;;;5094637;28;20032;-67
2022/11/06 07:29:31;;;;;;;6.65;2.70;;;12.10;99.90;;;;;;5094613;28;20039;-67
2022/11/06 07:31:56;;;;;;;7.13;2.72;;;12.30;99.90;;;;;;5094570;28;20023;-66
2022/11/06 07:34:22;;;;;;;6.80;2.88;;;12.50;99.90;;;;;;5093848;28;20028;-67
2022/11/06 07:36:48;;;;;;;6.60;3.00;;;12.60;99.90;;;;;;5094477;28;20078;-66
2022/11/06 07:39:14;;;;;;;6.15;3.00;;;12.00;99.90;;;;;;5093941;28;20096;-66
2022/11/06 07:41:39;;;;;;;8.27;2.97;;;10.80;99.90;;;;;;5094250;28;20091;-66
2022/11/06 07:44:05;;;;;;;5.90;2.60;;;12.30;99.90;;;;;;5094406;28;20028;-66
2022/11/06 07:46:31;;;;;;;7.97;2.53;;;11.90;99.90;;;;;;5094288;28;20065;-66
2022/11/06 07:48:56;;;;;;;5.88;2.47;;;11.60;99.90;;;;;;5093871;28;20074;-66
2022/11/06 07:51:22;;;;;;;7.72;2.70;;;11.80;99.90;;;;;;5094627;28;20055;-66
2022/11/06 07:53:48;;;;;;;5.15;2.55;;;11.90;99.90;;;;;;5094161;28;20028;-66
2022/11/06 07:56:13;;;;;;;6.53;2.50;;;12.30;99.90;;;;;;5093802;28;20068;-64
2022/11/06 07:58:39;;;;;;;7.65;2.90;;;12.20;99.90;;;;;;5094296;28;20025;-66
2022/11/06 08:01:05;;;;;;;8.07;2.80;;;14.30;99.90;;;;;;5094169;28;20065;-65
2022/11/06 08:03:31;;;;;;;8.98;2.75;;;14.30;99.90;;;;;;5093236;28;20476;-66
2022/11/06 08:05:58;;;;;;;6.38;2.40;;;13.60;99.90;;;;;;5093367;28;20103;-66
2022/11/06 08:08:23;;;;;;;7.22;3.50;;;12.00;99.90;;;;;;5093827;28;20091;-66
2022/11/06 08:10:50;;;;;;;5.90;2.88;;;12.50;99.90;;;;;;5094108;28;20087;-66
2022/11/06 08:13:17;;;;;;;7.88;3.20;;;12.80;99.90;;;;;;5093696;28;20024;-66
2022/11/06 08:15:43;;;;;;;9.25;2.80;;;13.20;99.90;;;;;;5093678;28;20494;-66
2022/11/06 08:18:10;;;;;;;7.28;3.20;;;14.40;99.90;;;;;;5093321;28;20031;-66
2022/11/06 08:20:37;;;;;;;7.65;3.17;;;15.30;99.90;;;;;;5094066;28;20024;-66
2022/11/06 08:23:05;;;;;;;8.23;3.10;;;16.00;99.90;;;;;;5093210;28;20085;-66
2022/11/06 08:25:31;;;;;;;9.73;3.10;;;15.40;99.90;;;;;;5094029;28;20027;-66
2022/11/06 08:27:57;;;;;;;6.32;2.60;;;15.30;99.90;;;;;;5093522;28;20016;-65
2022/11/06 08:30:24;;;;;;;7.07;2.60;;;16.90;99.90;;;;;;5093636;28;20031;-65
2022/11/06 08:32:50;;;;;;;6.88;2.85;;;18.10;99.90;;;;;;5093850;28;20039;-66
2022/11/06 08:35:15;;;;;;;7.45;2.75;;;17.80;99.90;;;;;;5092231;28;20043;-66
2022/11/06 08:37:41;;;;;;;5.82;2.70;;;17.40;99.90;;;;;;5093426;28;20023;-66
2022/11/06 08:40:08;;;;;;;6.00;2.83;;;17.00;99.90;;;;;;5094724;28;20035;-66
2022/11/06 08:42:33;;;;;;;6.60;2.90;;;19.40;99.90;;;;;;5093725;28;20047;-66
2022/11/06 08:44:59;;;;;;;7.07;3.20;;;18.90;99.90;;;;;;5093337;28;20478;-66
2022/11/06 08:47:25;;;;;;;6.50;3.13;;;19.00;99.90;;;;;;5091965;28;20106;-66
2022/11/06 08:49:51;;;;;;;6.70;3.25;;;19.40;99.90;;;;;;5092061;28;20028;-65
2022/11/06 08:52:16;;;;;;;5.82;3.28;;;20.10;99.90;;;;;;5092711;28;20130;-66
2022/11/06 08:54:42;;;;;;;8.43;3.50;;;22.20;99.90;;;;;;5092793;28;20024;-66
2022/11/06 08:57:07;;;;;;;6.63;3.38;;;19.80;99.90;;;;;;5092994;28;20386;-66
2022/11/06 08:59:33;;;;;;;6.57;3.20;;;20.70;99.90;;;;;;5093532;28;20050;-66
2022/11/06 09:01:59;;;;;;;6.55;2.88;;;22.30;99.90;;;;;;5093906;28;20115;-65
2022/11/06 09:04:25;;;;;;;7.28;3.20;;;22.80;99.90;;;;;;5093809;28;20028;-63
2022/11/06 09:06:51;;;;;;;99.25;9.55;;;21.80;99.90;;;;;;5093422;28;20080;-67
2022/11/06 09:09:17;;;;;;;49.38;5.85;;;22.60;99.90;;;;;;5092380;28;20028;-66
2022/11/06 09:11:42;;;;;;;52.45;6.50;;;23.60;99.90;;;;;;5092972;28;20073;-66
2022/11/06 09:14:08;;;;;;;44.42;6.15;;;21.00;99.90;;;;;;5092483;28;20471;-67
2022/11/06 09:16:34;;;;;;;14.95;3.50;;;19.60;99.90;;;;;;5092783;28;20020;-67
2022/11/06 09:18:59;;;;;;;21.70;4.13;;;18.60;99.90;;;;;;5093208;28;20165;-67
2022/11/06 09:21:25;;;;;;;8.52;3.15;;;18.00;99.90;;;;;;5092951;28;20020;-67
2022/11/06 09:23:51;;;;;;;7.65;3.22;;;17.30;99.90;;;;;;5092686;28;20479;-66
2022/11/06 09:26:17;;;;;;;11.82;3.35;;;14.40;99.90;;;;;;5092398;28;20110;-69
2022/11/06 09:28:43;;;;;;;10.43;3.45;;;14.80;99.90;;;;;;5092455;28;20036;-64
2022/11/06 09:31:09;;;;;;;6.88;3.60;;;15.40;99.90;;;;;;5092197;28;20085;-66
2022/11/06 09:33:34;;;;;;;13.15;3.92;;;14.70;99.90;;;;;;5092263;28;20054;-66
2022/11/06 09:36:06;;;;;;;8.00;4.10;;;14.70;99.90;;;;;;5092390;28;20020;-66
2022/11/06 09:38:32;;;;;;;9.40;4.60;;;14.10;99.90;;;;;;5091575;28;20418;-66
2022/11/06 09:41:00;;;;;;;8.68;3.88;;;14.50;99.90;;;;;;5092588;28;20020;-64
2022/11/06 09:44:03;;;;;;;10.88;4.40;;;14.40;99.90;;;;;;5092076;28;20398;-65
2022/11/06 09:46:44;;;;;;;9.68;4.65;;;13.90;99.90;;;;;;5091096;28;20376;-66
2022/11/06 09:49:25;;;;;;;9.80;4.13;;;13.80;99.90;;;;;;5092711;28;20027;-66
2022/11/06 09:52:12;;;;;;;11.25;4.20;;;15.20;99.90;;;;;;5092146;28;20395;-64
2022/11/06 09:54:44;;;;;;;13.48;6.50;;;14.50;99.90;;;;;;5091377;28;20752;-65
2022/11/06 09:57:51;;;;;;;12.85;9.95;;;14.80;99.90;;;;;;5091435;28;20024;-65
2022/11/06 10:00:17;;;;;;;10.85;4.22;;;14.10;99.90;;;;;;5071842;28;20407;-65
2022/11/06 10:02:52;;;;;;;11.55;4.28;;;14.90;99.90;;;;;;5089234;28;20055;-65
2022/11/06 10:05:31;;;;;;;9.40;4.22;;;14.50;99.90;;;;;;5089545;28;20107;-65
2022/11/06 10:08:00;;;;;;;10.40;4.38;;;14.50;99.90;;;;;;5088832;28;20040;-65
2022/11/06 10:10:55;;;;;;;9.27;4.70;;;15.30;99.90;;;;;;5089916;28;20398;-67
2022/11/06 10:13:52;;;;;;;7.40;4.18;;;15.40;99.90;;;;;;5087063;28;20047;-66
2022/11/06 10:16:38;;;;;;;9.55;4.63;;;15.20;99.90;;;;;;5085531;28;20066;-67
2022/11/06 10:19:34;;;;;;;8.80;4.60;;;14.80;99.90;;;;;;5089277;28;20070;-67
2022/11/06 10:22:17;;;;;;;6.85;4.65;;;14.80;99.90;;;;;;5088728;28;20398;-67
2022/11/06 10:24:49;;;;;;;11.80;6.72;;;14.90;99.90;;;;;;5088668;28;20044;-67
2022/11/06 10:27:41;;;;;;;7.97;4.33;;;14.90;99.90;;;;;;5089524;28;20194;-66
2022/11/06 10:30:11;;;;;;;9.65;4.65;;;14.90;99.90;;;;;;5090225;28;20119;-67
2022/11/06 10:32:55;;;;;;;12.52;4.68;;;15.30;99.90;;;;;;5090037;28;20032;-67
2022/11/06 10:35:42;;;;;;;10.18;5.03;;;15.20;99.90;;;;;;5083661;28;20033;-67
2022/11/06 10:38:27;;;;;;;10.57;4.60;;;15.00;99.90;;;;;;5071315;28;20027;-67
2022/11/06 10:40:54;;;;;;;11.13;4.63;;;15.40;99.90;;;;;;5071253;28;20033;-67
2022/11/06 10:43:30;;;;;;;16.30;10.95;;;15.60;99.90;;;;;;5071021;28;20410;-67
2022/11/06 10:46:20;;;;;;;12.70;9.63;;;16.10;99.90;;;;;;5071213;28;20032;-67
2022/11/06 10:48:59;;;;;;;7.70;4.63;;;16.50;99.90;;;;;;5073867;28;20123;-67
2022/11/06 10:51:50;;;;;;;8.90;4.47;;;16.70;99.90;;;;;;5071135;28;20158;-67
2022/11/06 10:54:31;;;;;;;14.23;4.70;;;18.30;99.90;;;;;;5071486;28;20029;-67
2022/11/06 10:57:02;;;;;;;11.70;7.38;;;18.00;99.90;;;;;;5071885;28;20064;-67
2022/11/06 10:59:28;;;;;;;8.43;4.70;;;19.00;99.90;;;;;;5072424;28;20025;-67
2022/11/06 11:01:54;;;;;;;9.88;4.88;;;20.70;99.90;;;;;;5071848;28;20017;-67
2022/11/06 11:04:20;;;;;;;10.68;4.50;;;21.90;99.90;;;;;;5071572;28;20406;-67
2022/11/06 11:06:46;;;;;;;7.93;4.82;;;22.10;99.90;;;;;;5070995;28;20024;-67
2022/11/06 11:09:38;;;;;;;12.32;7.95;;;21.90;99.90;;;;;;5070904;28;20082;-66
2022/11/06 11:12:04;;;;;;;8.68;4.38;;;22.20;99.90;;;;;;5069361;28;20095;-66
2022/11/06 11:14:31;;;;;;;8.00;4.53;;;21.30;99.90;;;;;;5074881;28;20162;-67
2022/11/06 11:17:06;;;;;;;15.40;11.35;;;20.90;99.90;;;;;;5074362;28;20021;-67
2022/11/06 11:19:37;;;;;;;9.85;5.70;;;20.70;99.90;;;;;;5074994;28;20028;-67
2022/11/06 11:22:16;;;;;;;13.38;7.60;;;20.80;99.90;;;;;;5074407;28;20154;-67
2022/11/06 11:25:05;;;;;;;11.98;6.60;;;20.80;99.90;;;;;;5074535;28;20036;-67
2022/11/06 11:27:36;;;;;;;10.60;6.90;;;21.10;99.90;;;;;;5074091;28;20031;-66
2022/11/06 11:30:04;;;;;;;9.70;4.70;;;21.30;99.90;;;;;;5074565;28;20059;-67
2022/11/06 11:32:30;;;;;;;12.13;3.78;;;20.90;99.90;;;;;;5085875;28;20111;-67
2022/11/06 11:34:56;;;;;;;7.82;3.55;;;20.90;99.90;;;;;;5094431;28;20169;-67
2022/11/06 11:37:24;;;;;;;9.55;3.63;;;20.60;99.90;;;;;;5094499;28;20028;-67
2022/11/06 11:39:50;;;;;;;6.32;3.20;;;20.30;99.90;;;;;;5094296;28;20508;-67
2022/11/06 11:42:29;;;;;;;8.10;3.22;;;20.10;99.90;;;;;;5094139;28;20123;-67
2022/11/06 11:45:07;;;;;;;8.52;2.75;;;19.60;99.90;;;;;;5094574;28;20069;-67
2022/11/06 11:47:33;;;;;;;7.75;4.32;;;19.80;99.90;;;;;;5094836;28;20066;-67
2022/11/06 11:50:27;;;;;;;7.68;3.58;;;19.90;99.90;;;;;;5094478;28;20386;-67
2022/11/06 11:53:18;;;;;;;9.27;3.60;;;20.30;99.90;;;;;;5094202;28;20180;-67
2022/11/06 11:55:47;;;;;;;5.68;3.10;;;20.60;99.90;;;;;;5094061;28;20401;-67
2022/11/06 11:58:31;;;;;;;6.53;2.28;;;20.50;99.90;;;;;;5094110;28;20024;-67
2022/11/06 12:01:01;;;;;;;6.88;2.03;;;19.80;99.90;;;;;;5094323;28;20024;-67
2022/11/06 12:03:32;;;;;;;6.70;3.70;;;19.90;99.90;;;;;;5094335;28;20028;-67
2022/11/06 12:06:11;;;;;;;4.45;2.10;;;20.50;99.90;;;;;;5094029;28;20073;-67
2022/11/06 12:08:47;;;;;;;5.28;2.17;;;20.40;99.90;;;;;;5093921;28;20035;-67
2022/11/06 12:11:19;;;;;;;4.75;2.22;;;20.50;99.90;;;;;;5093943;28;20055;-67
2022/11/06 12:14:05;;;;;;;6.28;3.58;;;20.50;99.90;;;;;;5093974;28;20020;-67
2022/11/06 12:16:30;;;;;;;3.72;1.70;;;20.30;99.90;;;;;;5094229;28;20035;-67
2022/11/06 12:18:57;;;;;;;3.28;1.50;;;19.90;99.90;;;;;;5093638;28;20028;-67
2022/11/06 12:21:26;;;;;;;5.90;1.88;;;20.50;99.90;;;;;;5093826;28;20024;-67
2022/11/06 12:24:03;;;;;;;5.10;1.92;;;20.40;99.90;;;;;;5094130;28;20039;-67
2022/11/06 12:26:47;;;;;;;6.65;1.90;;;20.00;99.90;;;;;;5094144;28;20043;-67
2022/11/06 12:29:18;;;;;;;;;;;20.10;99.90;;;;;;5094987;28;20398;-67
2022/11/06 12:31:46;;;;;;;7.65;2.00;;;20.10;99.90;;;;;;5093943;28;20058;-68
2022/11/06 12:34:32;;;;;;;5.85;2.40;;;19.80;99.90;;;;;;5093569;28;20610;-67
2022/11/06 12:37:17;;;;;;;6.53;3.50;;;20.10;99.90;;;;;;5093927;28;20447;-67
2022/11/06 12:39:48;;;;;;;4.10;2.53;;;20.00;99.90;;;;;;5093441;28;20465;-67
2022/11/06 12:42:16;;;;;;;5.90;3.30;;;20.00;99.90;;;;;;5093253;28;20388;-67
2022/11/06 12:44:44;;;;;;;6.70;3.22;;;20.00;99.90;;;;;;5093203;28;20533;-67
2022/11/06 12:47:36;;;;;;;7.32;2.70;;;19.60;99.90;;;;;;5093669;28;20428;-67
2022/11/06 12:50:35;;;;;;;6.45;3.15;;;19.50;99.90;;;;;;5093272;28;20607;-67
2022/11/06 12:53:39;;;;;;;15.75;7.82;;;19.50;99.90;;;;;;5090715;28;20048;-68
2022/11/06 12:56:42;;;;;;;6.93;3.55;;;19.10;99.90;;;;;;5011397;28;20432;-67
2022/11/06 12:59:20;;;;;;;5.82;2.47;;;19.00;99.90;;;;;;5006097;28;20041;-67
2022/11/06 13:02:27;;;;;;;6.97;3.95;;;18.90;99.90;;;;;;5012360;28;20033;-67
2022/11/06 13:05:11;;;;;;;8.73;2.80;;;18.80;99.90;;;;;;4971946;28;20186;-67
2022/11/06 13:07:51;;;;;;;7.28;3.50;;;18.70;99.90;;;;;;4972608;28;20053;-67
2022/11/06 13:10:29;;;;;;;10.90;6.13;;;18.60;99.90;;;;;;4972271;28;20030;-67
2022/11/06 13:13:00;;;;;;;14.43;7.22;;;18.80;99.90;;;;;;4972189;28;20058;-67
2022/11/06 13:15:44;;;;;;;7.95;3.38;;;19.00;99.90;;;;;;4972612;28;20038;-67
2022/11/06 13:18:39;;;;;;;7.35;3.80;;;18.90;99.90;;;;;;4971710;28;20023;-67
2022/11/06 13:21:51;;;;;;;6.03;2.10;;;19.00;99.90;;;;;;4969922;28;20038;-66
2022/11/06 13:24:49;;;;;;;7.30;4.65;;;19.00;99.90;;;;;;4895726;29;20052;-67